Terminal Aerodrome Forecast
Issued by NWS

Home | Current Version | Previous Version | Text Only | Print | Product List | Glossary On
Versions: 1 2 3 4 5 6 7 8 9 10 11 12 13 14 15 16 17 18 19 20 21 22 23 24 25 26 27 28 29 30 31 32 33 34 35 36 37 38 39 40 41 42 43
000
FTUS41 KRNK 302324
TAFLWB
TAF
KLWB 302324Z 3100/3124 18005KT P6SM SCT060
     FM310100 00000KT P6SM FEW070
      TEMPO 3108/3112 1SM BR SCT001
     FM311400 22004KT P6SM SCT050
     FM311800 23007KT P6SM VCTS SCT060CB BKN090=

USA.gov is the U.S. government's official web portal to all federal, state and local government web resources and services.